BTEX

 

 

Black Thunder Express - INVENTORY

Station: Inventory - T Race

Distance: 1 Miles

Release: 10-Jun-2021 08:45

Weather Release:    Arrival:

Wind at Release: calm     Wind at Arrival: calm

Temp at Release: 47°    Temp at Arrival: °

Lofts: 14

Birds: 45

Clocked: 39

Good Luck to Everyone!
Drops Pos Breeder Pigeon Name Color Sex Ent Arrival Speed To Win Elg Pd
1 Lamonta - OR 0812-AU21-FHI BC H 1 09:08:29.56 74.917 00:00:00 Yes
2 Lamonta - OR 0808-AU21-FHI BB H 2 09:13:39.89 61.399 00:05:10 Yes
3 S & J Platt - OR 1156-AU21-FHI BB H 1 09:14:12.02 60.273 00:05:42 Yes
4 S & J Platt - OR 1160-AU21-FHI BB H 2 09:14:43.78 59.200 00:06:14 Yes
5 Taylor Loft - NM 21064-AU21-NMPC BB H 1 09:30:44.82 38.472 00:22:15 Yes
6 Tom Arveson - WA 6344-AU21-LKC BB H 1 09:35:20.84 34.957 00:26:51 Yes
7 Nice - IL 0242-AU21-NICE BB H 1 09:35:37.32 34.767 00:27:08 Yes
8 Fassio Loft - UT 1061-AU21-SLI BB H 1 09:35:46.79 34.659 00:27:17 Yes
9 Life Loft - WA 4400-AU21-CBF BCH H 1 09:35:47.17 34.655 00:27:18 Yes
10 Life Loft - WA 4406-AU21-CBF BB H 2 09:35:47.30 34.654 00:27:18 Yes
11 Fassio Loft - UT 1097-AU21-SLI BB H 2 09:35:47.68 34.649 00:27:18 Yes
12 S & S - CA 0122-AU21-SAS BB H 1 09:35:48.78 34.637 00:27:19 Yes
13 S & S - CA 0117-AU21-SAS BB H 2 09:35:49.66 34.627 00:27:20 Yes
14 George Scott - UT 0405-AU21-REBW BB H 1 09:35:49.77 34.626 00:27:20 Yes
15 Arc - MI 5305-AU21-ARC BC H 1 09:35:50.27 34.620 00:27:21 Yes
16 George Scott - UT 0403-AU21-REBW BB H 2 09:35:50.65 34.616 00:27:21 Yes
17 S & S - CA 0121-AU21-SAS BB H 3 09:35:50.78 34.614 00:27:21 Yes
18 Taylor Loft - NM 21017-AU21-NMPC BB H 2 09:35:52.09 34.599 00:27:23 Yes
19 Dean Farmer - IL 2301-AU21-VITA BB C 1 09:35:52.81 34.591 00:27:23 Yes
20 Life Loft - WA 4421-AU21-CBF BCH H 3 09:35:53.32 34.585 00:27:24 Yes
21 Digest - MT 0012-AU21-DIGT BB H 1 09:35:53.93 34.578 00:27:24 Yes
22 Digest - MT 0019-AU21-DIGT BBWF H 2 09:35:54.64 34.570 00:27:25 Yes
23 Arc - MI 5307-AU21-ARC BB H 2 09:35:54.75 34.569 00:27:25 Yes
24 Life Loft - WA 4415-AU21-CBF BCH H 4 09:35:55.96 34.555 00:27:26 Yes
25 Fassio Loft - UT 1067-AU21-SLI BB H 3 09:35:58.12 34.531 00:27:29 Yes
26 Dean Farmer - IL 2309-AU21-VITA BB H 2 09:35:58.52 34.527 00:27:29 Yes
27 Rueter Family Loft - OR 0904-AU21-CORP BB H 1 09:35:58.64 34.525 00:27:29 Yes
28 Fassio Loft - UT 1116-AU21-SLI DKC H 4 09:35:58.75 34.524 00:27:29 Yes
29 Rueter Family Loft - OR 0908-AU21-CORP BB H 2 09:35:59.50 34.515 00:27:30 Yes
30 Life Loft - WA 4427-AU21-CBF BCH H 5 09:36:00.45 34.505 00:27:31 Yes
31 S & S - CA 0119-AU21-SAS BB H 4 09:36:01.24 34.496 00:27:32 Yes
32 Nice - IL 0241-AU21-NICE GRIZ H 2 09:36:03.13 34.475 00:27:34 Yes
33 Rueter Family Loft - OR 0875-AU21-CORP BB H 3 09:36:04.05 34.464 00:27:35 Yes
34 Arc - MI 4019-AU21-ARC BC H 3 09:36:04.44 34.460 00:27:35 Yes
35 Digest - MT 0007-AU21-DIGT BB H 3 09:36:05.69 34.446 00:27:36 Yes
36 George Scott - UT 0402-AU21-REBW BB H 3 09:36:07.27 34.428 00:27:38 Yes
37 Digest - MT 0011-AU21-DIGT BB H 4 09:36:08.10 34.419 00:27:39 Yes
38 Fassio Loft - UT 1066-AU21-SLI BB H 5 09:36:13.60 34.357 00:27:44 Yes
39 Paul Meyer - WA 1403-AU21-TCW BC H 1 09:37:34.09 33.480 00:29:05 Yes

There are 39 bird records

Note: These Race Results are unofficial and subject to change until verified by the Race Committee and declared final.